sensor_id;sensor_type;location;lat;lon;timestamp;temperature;humidity
17415;DHT22;8825;48.086;16.426;2023-09-08T00:00:26;17.40;63.40
17415;DHT22;8825;48.086;16.426;2023-09-08T00:02:54;17.40;63.30
17415;DHT22;8825;48.086;16.426;2023-09-08T00:05:22;17.40;63.30
17415;DHT22;8825;48.086;16.426;2023-09-08T00:07:49;17.30;63.00
17415;DHT22;8825;48.086;16.426;2023-09-08T00:10:17;17.30;63.10
17415;DHT22;8825;48.086;16.426;2023-09-08T00:12:44;17.30;63.00
17415;DHT22;8825;48.086;16.426;2023-09-08T00:15:12;17.20;63.00
17415;DHT22;8825;48.086;16.426;2023-09-08T00:17:39;17.10;63.00
17415;DHT22;8825;48.086;16.426;2023-09-08T00:20:07;17.10;63.30
17415;DHT22;8825;48.086;16.426;2023-09-08T00:22:37;17.10;63.50
17415;DHT22;8825;48.086;16.426;2023-09-08T00:25:05;17.00;64.40
17415;DHT22;8825;48.086;16.426;2023-09-08T00:27:33;17.00;63.80
17415;DHT22;8825;48.086;16.426;2023-09-08T00:30:00;17.00;63.90
17415;DHT22;8825;48.086;16.426;2023-09-08T00:32:28;17.00;64.10
17415;DHT22;8825;48.086;16.426;2023-09-08T00:34:56;16.90;64.10
17415;DHT22;8825;48.086;16.426;2023-09-08T00:37:23;16.90;64.30
17415;DHT22;8825;48.086;16.426;2023-09-08T00:39:51;16.80;64.40
17415;DHT22;8825;48.086;16.426;2023-09-08T00:42:18;16.80;64.60
17415;DHT22;8825;48.086;16.426;2023-09-08T00:44:46;16.80;64.80
17415;DHT22;8825;48.086;16.426;2023-09-08T00:47:13;16.80;65.00
17415;DHT22;8825;48.086;16.426;2023-09-08T00:49:42;16.80;65.20
17415;DHT22;8825;48.086;16.426;2023-09-08T00:52:10;16.80;65.30
17415;DHT22;8825;48.086;16.426;2023-09-08T00:54:40;16.80;65.30
17415;DHT22;8825;48.086;16.426;2023-09-08T00:57:09;16.70;65.40
17415;DHT22;8825;48.086;16.426;2023-09-08T00:59:40;16.70;65.40
17415;DHT22;8825;48.086;16.426;2023-09-08T01:02:08;16.70;65.60
17415;DHT22;8825;48.086;16.426;2023-09-08T01:04:36;16.70;65.60
17415;DHT22;8825;48.086;16.426;2023-09-08T01:07:05;16.70;65.50
17415;DHT22;8825;48.086;16.426;2023-09-08T01:09:33;16.70;65.80
17415;DHT22;8825;48.086;16.426;2023-09-08T01:12:03;16.60;65.90
17415;DHT22;8825;48.086;16.426;2023-09-08T01:14:32;16.60;66.00
17415;DHT22;8825;48.086;16.426;2023-09-08T01:17:00;16.60;66.20
17415;DHT22;8825;48.086;16.426;2023-09-08T01:19:27;16.50;66.10
17415;DHT22;8825;48.086;16.426;2023-09-08T01:22:07;16.50;65.70
17415;DHT22;8825;48.086;16.426;2023-09-08T01:27:34;16.40;65.70
17415;DHT22;8825;48.086;16.426;2023-09-08T01:30:03;16.40;65.30
17415;DHT22;8825;48.086;16.426;2023-09-08T01:32:33;16.40;65.30
17415;DHT22;8825;48.086;16.426;2023-09-08T01:35:02;16.30;65.40
17415;DHT22;8825;48.086;16.426;2023-09-08T01:37:29;16.30;65.60
17415;DHT22;8825;48.086;16.426;2023-09-08T01:40:03;16.30;65.80
17415;DHT22;8825;48.086;16.426;2023-09-08T01:42:31;16.30;66.00
17415;DHT22;8825;48.086;16.426;2023-09-08T01:44:58;16.20;66.80
17415;DHT22;8825;48.086;16.426;2023-09-08T01:47:27;16.20;66.40
17415;DHT22;8825;48.086;16.426;2023-09-08T01:50:00;16.20;66.60
17415;DHT22;8825;48.086;16.426;2023-09-08T01:52:28;16.20;66.80
17415;DHT22;8825;48.086;16.426;2023-09-08T01:54:56;16.20;67.00
17415;DHT22;8825;48.086;16.426;2023-09-08T01:57:23;16.10;67.20
17415;DHT22;8825;48.086;16.426;2023-09-08T02:00:01;16.10;67.20
17415;DHT22;8825;48.086;16.426;2023-09-08T02:02:29;16.00;67.30
17415;DHT22;8825;48.086;16.426;2023-09-08T02:04:56;16.00;67.40
17415;DHT22;8825;48.086;16.426;2023-09-08T02:07:24;15.90;67.50
17415;DHT22;8825;48.086;16.426;2023-09-08T02:09:57;15.90;67.50
17415;DHT22;8825;48.086;16.426;2023-09-08T02:12:25;15.90;67.60
17415;DHT22;8825;48.086;16.426;2023-09-08T02:14:55;15.90;67.90
17415;DHT22;8825;48.086;16.426;2023-09-08T02:17:23;15.90;68.00
17415;DHT22;8825;48.086;16.426;2023-09-08T02:19:50;15.90;68.20
17415;DHT22;8825;48.086;16.426;2023-09-08T02:22:18;15.80;68.30
17415;DHT22;8825;48.086;16.426;2023-09-08T02:24:46;15.80;68.40
17415;DHT22;8825;48.086;16.426;2023-09-08T02:27:13;15.80;68.50
17415;DHT22;8825;48.086;16.426;2023-09-08T02:29:47;15.70;68.40
17415;DHT22;8825;48.086;16.426;2023-09-08T02:32:14;15.70;68.60
17415;DHT22;8825;48.086;16.426;2023-09-08T02:34:42;15.70;68.70
17415;DHT22;8825;48.086;16.426;2023-09-08T02:37:10;15.60;68.40
17415;DHT22;8825;48.086;16.426;2023-09-08T02:39:37;15.60;67.50
17415;DHT22;8825;48.086;16.426;2023-09-08T02:42:05;15.60;67.00
17415;DHT22;8825;48.086;16.426;2023-09-08T02:44:33;15.60;66.90
17415;DHT22;8825;48.086;16.426;2023-09-08T02:47:00;15.50;67.90
17415;DHT22;8825;48.086;16.426;2023-09-08T02:49:27;15.50;67.10
17415;DHT22;8825;48.086;16.426;2023-09-08T02:51:55;15.50;67.40
17415;DHT22;8825;48.086;16.426;2023-09-08T02:54:23;15.50;67.60
17415;DHT22;8825;48.086;16.426;2023-09-08T02:56:57;15.40;67.70
17415;DHT22;8825;48.086;16.426;2023-09-08T02:59:24;15.40;67.30
17415;DHT22;8825;48.086;16.426;2023-09-08T03:02:04;15.40;66.70
17415;DHT22;8825;48.086;16.426;2023-09-08T03:04:32;15.30;65.80
17415;DHT22;8825;48.086;16.426;2023-09-08T03:07:00;15.20;65.30
17415;DHT22;8825;48.086;16.426;2023-09-08T03:09:27;15.20;65.00
17415;DHT22;8825;48.086;16.426;2023-09-08T03:11:54;15.10;65.00
17415;DHT22;8825;48.086;16.426;2023-09-08T03:14:22;15.10;65.20
17415;DHT22;8825;48.086;16.426;2023-09-08T03:16:55;15.10;65.60
17415;DHT22;8825;48.086;16.426;2023-09-08T03:19:23;15.00;66.10
17415;DHT22;8825;48.086;16.426;2023-09-08T03:21:50;15.00;67.00
17415;DHT22;8825;48.086;16.426;2023-09-08T03:24:18;15.00;67.30
17415;DHT22;8825;48.086;16.426;2023-09-08T03:26:48;15.00;67.70
17415;DHT22;8825;48.086;16.426;2023-09-08T03:29:15;15.00;67.80
17415;DHT22;8825;48.086;16.426;2023-09-08T03:31:43;14.90;68.20
17415;DHT22;8825;48.086;16.426;2023-09-08T03:34:11;14.90;68.50
17415;DHT22;8825;48.086;16.426;2023-09-08T03:36:39;14.90;68.70
17415;DHT22;8825;48.086;16.426;2023-09-08T03:39:07;14.90;68.70
17415;DHT22;8825;48.086;16.426;2023-09-08T03:41:36;14.90;69.10
17415;DHT22;8825;48.086;16.426;2023-09-08T03:44:03;14.80;68.90
17415;DHT22;8825;48.086;16.426;2023-09-08T03:46:31;14.80;68.90
17415;DHT22;8825;48.086;16.426;2023-09-08T03:48:58;14.80;69.10
17415;DHT22;8825;48.086;16.426;2023-09-08T03:51:27;14.80;69.10
17415;DHT22;8825;48.086;16.426;2023-09-08T03:53:55;14.80;69.20
17415;DHT22;8825;48.086;16.426;2023-09-08T03:56:23;14.80;69.40
17415;DHT22;8825;48.086;16.426;2023-09-08T03:58:51;14.80;69.40
17415;DHT22;8825;48.086;16.426;2023-09-08T04:01:18;14.80;70.10
17415;DHT22;8825;48.086;16.426;2023-09-08T04:03:46;14.90;70.10
17415;DHT22;8825;48.086;16.426;2023-09-08T04:06:13;14.90;69.80
17415;DHT22;8825;48.086;16.426;2023-09-08T04:08:41;14.90;69.60
17415;DHT22;8825;48.086;16.426;2023-09-08T04:11:08;14.90;70.30
17415;DHT22;8825;48.086;16.426;2023-09-08T04:13:36;14.90;69.60
17415;DHT22;8825;48.086;16.426;2023-09-08T04:16:03;14.90;69.70
17415;DHT22;8825;48.086;16.426;2023-09-08T04:18:31;14.90;69.80
17415;DHT22;8825;48.086;16.426;2023-09-08T04:20:59;14.80;70.00
17415;DHT22;8825;48.086;16.426;2023-09-08T04:23:26;14.80;70.10
17415;DHT22;8825;48.086;16.426;2023-09-08T04:25:54;14.80;70.00
17415;DHT22;8825;48.086;16.426;2023-09-08T04:28:21;14.80;70.50
17415;DHT22;8825;48.086;16.426;2023-09-08T04:30:49;14.80;70.40
17415;DHT22;8825;48.086;16.426;2023-09-08T04:33:16;14.80;70.30
17415;DHT22;8825;48.086;16.426;2023-09-08T04:35:44;14.70;70.30
17415;DHT22;8825;48.086;16.426;2023-09-08T04:38:11;14.70;70.20
17415;DHT22;8825;48.086;16.426;2023-09-08T04:40:42;14.70;70.40
17415;DHT22;8825;48.086;16.426;2023-09-08T04:43:09;14.70;70.50
17415;DHT22;8825;48.086;16.426;2023-09-08T04:45:37;14.70;70.20
17415;DHT22;8825;48.086;16.426;2023-09-08T04:48:05;14.70;70.30
17415;DHT22;8825;48.086;16.426;2023-09-08T04:50:32;14.80;70.50
17415;DHT22;8825;48.086;16.426;2023-09-08T04:53:01;14.80;70.50
17415;DHT22;8825;48.086;16.426;2023-09-08T04:55:30;14.80;70.40
17415;DHT22;8825;48.086;16.426;2023-09-08T04:57:57;14.80;70.30
17415;DHT22;8825;48.086;16.426;2023-09-08T05:00:25;14.90;70.40
17415;DHT22;8825;48.086;16.426;2023-09-08T05:02:52;14.90;70.50
17415;DHT22;8825;48.086;16.426;2023-09-08T05:05:20;14.90;70.70
17415;DHT22;8825;48.086;16.426;2023-09-08T05:07:47;14.90;70.70
17415;DHT22;8825;48.086;16.426;2023-09-08T05:10:15;15.00;70.80
17415;DHT22;8825;48.086;16.426;2023-09-08T05:12:42;15.00;70.60
17415;DHT22;8825;48.086;16.426;2023-09-08T05:15:10;15.00;70.50
17415;DHT22;8825;48.086;16.426;2023-09-08T05:17:39;15.00;70.00
17415;DHT22;8825;48.086;16.426;2023-09-08T05:20:07;15.00;69.90
17415;DHT22;8825;48.086;16.426;2023-09-08T05:22:35;15.00;69.90
17415;DHT22;8825;48.086;16.426;2023-09-08T05:25:03;15.10;70.00
17415;DHT22;8825;48.086;16.426;2023-09-08T05:27:31;15.10;70.20
17415;DHT22;8825;48.086;16.426;2023-09-08T05:29:59;15.20;70.40
17415;DHT22;8825;48.086;16.426;2023-09-08T05:32:26;15.20;70.30
17415;DHT22;8825;48.086;16.426;2023-09-08T05:34:54;15.30;70.00
17415;DHT22;8825;48.086;16.426;2023-09-08T05:37:21;15.30;69.80
17415;DHT22;8825;48.086;16.426;2023-09-08T05:39:49;15.40;69.70
17415;DHT22;8825;48.086;16.426;2023-09-08T05:42:16;15.40;69.80
17415;DHT22;8825;48.086;16.426;2023-09-08T05:44:44;15.40;69.30
17415;DHT22;8825;48.086;16.426;2023-09-08T05:47:12;15.50;69.80
17415;DHT22;8825;48.086;16.426;2023-09-08T05:49:40;15.60;70.00
17415;DHT22;8825;48.086;16.426;2023-09-08T05:52:07;15.60;69.90
17415;DHT22;8825;48.086;16.426;2023-09-08T05:54:35;15.70;70.10
17415;DHT22;8825;48.086;16.426;2023-09-08T05:57:02;15.80;70.20
17415;DHT22;8825;48.086;16.426;2023-09-08T05:59:30;15.90;69.50
17415;DHT22;8825;48.086;16.426;2023-09-08T06:01:57;15.90;70.30
17415;DHT22;8825;48.086;16.426;2023-09-08T06:04:25;16.10;70.40
17415;DHT22;8825;48.086;16.426;2023-09-08T06:06:52;16.10;70.50
17415;DHT22;8825;48.086;16.426;2023-09-08T06:09:21;16.20;70.60
17415;DHT22;8825;48.086;16.426;2023-09-08T06:11:48;16.30;70.80
17415;DHT22;8825;48.086;16.426;2023-09-08T06:14:16;16.40;71.00
17415;DHT22;8825;48.086;16.426;2023-09-08T06:16:43;16.50;70.90
17415;DHT22;8825;48.086;16.426;2023-09-08T06:19:12;16.60;71.50
17415;DHT22;8825;48.086;16.426;2023-09-08T06:21:40;16.70;71.00
17415;DHT22;8825;48.086;16.426;2023-09-08T06:24:07;16.80;70.70
17415;DHT22;8825;48.086;16.426;2023-09-08T06:26:36;16.90;70.70
17415;DHT22;8825;48.086;16.426;2023-09-08T06:29:05;17.00;70.60
17415;DHT22;8825;48.086;16.426;2023-09-08T06:31:32;17.10;70.60
17415;DHT22;8825;48.086;16.426;2023-09-08T06:34:00;17.20;70.50
17415;DHT22;8825;48.086;16.426;2023-09-08T06:36:27;17.30;70.40
17415;DHT22;8825;48.086;16.426;2023-09-08T06:38:55;17.40;71.00
17415;DHT22;8825;48.086;16.426;2023-09-08T06:41:22;17.50;70.30
17415;DHT22;8825;48.086;16.426;2023-09-08T06:43:50;17.60;70.20
17415;DHT22;8825;48.086;16.426;2023-09-08T06:46:17;17.70;70.00
17415;DHT22;8825;48.086;16.426;2023-09-08T06:48:45;17.90;69.90
17415;DHT22;8825;48.086;16.426;2023-09-08T06:51:13;18.00;69.40
17415;DHT22;8825;48.086;16.426;2023-09-08T06:53:42;18.20;69.10
17415;DHT22;8825;48.086;16.426;2023-09-08T06:56:09;18.30;68.60
17415;DHT22;8825;48.086;16.426;2023-09-08T06:58:37;18.40;68.10
17415;DHT22;8825;48.086;16.426;2023-09-08T07:01:04;18.60;67.70
17415;DHT22;8825;48.086;16.426;2023-09-08T07:03:32;18.70;67.50
17415;DHT22;8825;48.086;16.426;2023-09-08T07:06:01;18.90;67.30
17415;DHT22;8825;48.086;16.426;2023-09-08T07:08:28;19.00;67.10
17415;DHT22;8825;48.086;16.426;2023-09-08T07:10:56;19.20;66.60
17415;DHT22;8825;48.086;16.426;2023-09-08T07:13:23;19.30;66.40
17415;DHT22;8825;48.086;16.426;2023-09-08T07:15:51;19.40;66.00
17415;DHT22;8825;48.086;16.426;2023-09-08T07:18:19;19.60;65.90
17415;DHT22;8825;48.086;16.426;2023-09-08T07:20:47;19.70;65.20
17415;DHT22;8825;48.086;16.426;2023-09-08T07:23:18;19.80;65.00
17415;DHT22;8825;48.086;16.426;2023-09-08T07:25:46;20.00;64.40
17415;DHT22;8825;48.086;16.426;2023-09-08T07:28:15;20.10;64.10
17415;DHT22;8825;48.086;16.426;2023-09-08T07:30:43;20.20;63.70
17415;DHT22;8825;48.086;16.426;2023-09-08T07:33:11;20.30;63.50
17415;DHT22;8825;48.086;16.426;2023-09-08T07:35:40;20.50;63.50
17415;DHT22;8825;48.086;16.426;2023-09-08T07:38:07;20.60;62.80
17415;DHT22;8825;48.086;16.426;2023-09-08T07:40:35;20.70;62.30
17415;DHT22;8825;48.086;16.426;2023-09-08T07:43:03;20.70;62.50
17415;DHT22;8825;48.086;16.426;2023-09-08T07:45:31;20.90;62.50
17415;DHT22;8825;48.086;16.426;2023-09-08T07:47:58;21.00;62.30
17415;DHT22;8825;48.086;16.426;2023-09-08T07:50:27;21.10;62.30
17415;DHT22;8825;48.086;16.426;2023-09-08T07:52:56;21.30;62.00
17415;DHT22;8825;48.086;16.426;2023-09-08T07:55:24;21.40;61.80
17415;DHT22;8825;48.086;16.426;2023-09-08T07:57:55;21.50;61.70
17415;DHT22;8825;48.086;16.426;2023-09-08T08:00:24;21.60;60.50
17415;DHT22;8825;48.086;16.426;2023-09-08T08:02:56;21.80;60.30
17415;DHT22;8825;48.086;16.426;2023-09-08T08:05:25;21.90;60.40
17415;DHT22;8825;48.086;16.426;2023-09-08T08:07:52;22.00;60.00
17415;DHT22;8825;48.086;16.426;2023-09-08T08:10:20;22.10;58.40
17415;DHT22;8825;48.086;16.426;2023-09-08T08:12:48;22.20;58.10
17415;DHT22;8825;48.086;16.426;2023-09-08T08:15:15;22.40;57.80
17415;DHT22;8825;48.086;16.426;2023-09-08T08:17:43;22.60;57.60
17415;DHT22;8825;48.086;16.426;2023-09-08T08:20:11;22.80;57.70
17415;DHT22;8825;48.086;16.426;2023-09-08T08:22:40;23.00;57.40
17415;DHT22;8825;48.086;16.426;2023-09-08T08:25:08;23.20;57.30
17415;DHT22;8825;48.086;16.426;2023-09-08T08:27:35;23.40;55.20
17415;DHT22;8825;48.086;16.426;2023-09-08T08:30:03;23.50;55.00
17415;DHT22;8825;48.086;16.426;2023-09-08T08:32:31;23.70;54.80
17415;DHT22;8825;48.086;16.426;2023-09-08T08:34:59;23.90;51.50
17415;DHT22;8825;48.086;16.426;2023-09-08T08:37:26;24.10;50.90
17415;DHT22;8825;48.086;16.426;2023-09-08T08:39:54;24.20;49.60
17415;DHT22;8825;48.086;16.426;2023-09-08T08:42:21;24.40;49.70
17415;DHT22;8825;48.086;16.426;2023-09-08T08:44:50;24.60;48.90
17415;DHT22;8825;48.086;16.426;2023-09-08T08:47:19;24.80;48.70
17415;DHT22;8825;48.086;16.426;2023-09-08T08:49:46;25.00;48.10
17415;DHT22;8825;48.086;16.426;2023-09-08T08:52:15;25.20;47.10
17415;DHT22;8825;48.086;16.426;2023-09-08T08:54:45;25.40;47.10
17415;DHT22;8825;48.086;16.426;2023-09-08T08:57:13;25.60;46.40
17415;DHT22;8825;48.086;16.426;2023-09-08T08:59:41;25.80;45.00
17415;DHT22;8825;48.086;16.426;2023-09-08T09:02:10;26.00;44.70
17415;DHT22;8825;48.086;16.426;2023-09-08T09:04:39;26.40;44.10
17415;DHT22;8825;48.086;16.426;2023-09-08T09:07:07;26.70;44.00
17415;DHT22;8825;48.086;16.426;2023-09-08T09:09:35;27.00;43.10
17415;DHT22;8825;48.086;16.426;2023-09-08T09:12:03;27.30;43.20
17415;DHT22;8825;48.086;16.426;2023-09-08T09:14:34;27.60;41.70
17415;DHT22;8825;48.086;16.426;2023-09-08T09:17:02;28.00;41.70
17415;DHT22;8825;48.086;16.426;2023-09-08T09:19:31;28.40;40.30
17415;DHT22;8825;48.086;16.426;2023-09-08T09:22:00;28.60;39.40
17415;DHT22;8825;48.086;16.426;2023-09-08T09:24:32;29.00;39.50
17415;DHT22;8825;48.086;16.426;2023-09-08T09:27:00;29.30;38.30
17415;DHT22;8825;48.086;16.426;2023-09-08T09:29:29;29.50;38.30
17415;DHT22;8825;48.086;16.426;2023-09-08T09:32:02;29.90;38.40
17415;DHT22;8825;48.086;16.426;2023-09-08T09:34:26;30.30;38.00
17415;DHT22;8825;48.086;16.426;2023-09-08T09:36:54;30.70;37.50
17415;DHT22;8825;48.086;16.426;2023-09-08T09:39:23;31.00;36.50
17415;DHT22;8825;48.086;16.426;2023-09-08T09:41:56;31.20;35.20
17415;DHT22;8825;48.086;16.426;2023-09-08T09:44:24;31.30;35.20
17415;DHT22;8825;48.086;16.426;2023-09-08T09:46:53;31.40;34.50
17415;DHT22;8825;48.086;16.426;2023-09-08T09:49:20;31.50;35.20
17415;DHT22;8825;48.086;16.426;2023-09-08T09:51:53;31.70;34.00
17415;DHT22;8825;48.086;16.426;2023-09-08T09:54:18;31.90;33.90
17415;DHT22;8825;48.086;16.426;2023-09-08T09:56:45;32.00;32.60
17415;DHT22;8825;48.086;16.426;2023-09-08T09:59:18;32.10;33.20
17415;DHT22;8825;48.086;16.426;2023-09-08T10:01:45;32.20;32.30
17415;DHT22;8825;48.086;16.426;2023-09-08T10:04:13;32.40;32.60
17415;DHT22;8825;48.086;16.426;2023-09-08T10:06:42;32.60;31.90
17415;DHT22;8825;48.086;16.426;2023-09-08T10:09:10;32.60;30.70
17415;DHT22;8825;48.086;16.426;2023-09-08T10:11:45;32.30;30.80
17415;DHT22;8825;48.086;16.426;2023-09-08T10:14:14;32.40;31.70
17415;DHT22;8825;48.086;16.426;2023-09-08T10:16:45;32.50;31.80
17415;DHT22;8825;48.086;16.426;2023-09-08T10:19:14;32.80;31.70
17415;DHT22;8825;48.086;16.426;2023-09-08T10:21:46;33.20;31.00
17415;DHT22;8825;48.086;16.426;2023-09-08T10:24:33;33.30;30.40
17415;DHT22;8825;48.086;16.426;2023-09-08T10:27:11;33.00;29.70
17415;DHT22;8825;48.086;16.426;2023-09-08T10:29:39;33.10;30.50
17415;DHT22;8825;48.086;16.426;2023-09-08T10:32:08;33.30;30.30
17415;DHT22;8825;48.086;16.426;2023-09-08T10:34:37;33.10;29.40
17415;DHT22;8825;48.086;16.426;2023-09-08T10:37:24;33.20;29.40
17415;DHT22;8825;48.086;16.426;2023-09-08T10:39:47;33.30;29.20
17415;DHT22;8825;48.086;16.426;2023-09-08T10:42:20;33.40;29.50
17415;DHT22;8825;48.086;16.426;2023-09-08T10:47:25;33.60;29.50
17415;DHT22;8825;48.086;16.426;2023-09-08T10:49:54;33.80;29.30
17415;DHT22;8825;48.086;16.426;2023-09-08T10:52:25;33.80;28.90
17415;DHT22;8825;48.086;16.426;2023-09-08T10:54:54;33.70;29.20
17415;DHT22;8825;48.086;16.426;2023-09-08T10:57:24;33.60;29.10
17415;DHT22;8825;48.086;16.426;2023-09-08T10:59:53;33.50;29.10
17415;DHT22;8825;48.086;16.426;2023-09-08T11:02:47;33.50;29.10
17415;DHT22;8825;48.086;16.426;2023-09-08T11:05:13;33.40;28.80
17415;DHT22;8825;48.086;16.426;2023-09-08T11:07:43;33.20;28.40
17415;DHT22;8825;48.086;16.426;2023-09-08T11:10:12;32.70;28.10
17415;DHT22;8825;48.086;16.426;2023-09-08T11:12:40;32.50;28.80
17415;DHT22;8825;48.086;16.426;2023-09-08T11:15:08;32.50;29.50
17415;DHT22;8825;48.086;16.426;2023-09-08T11:17:37;32.40;29.40
17415;DHT22;8825;48.086;16.426;2023-09-08T11:20:09;32.40;29.30
17415;DHT22;8825;48.086;16.426;2023-09-08T11:22:38;32.40;29.40
17415;DHT22;8825;48.086;16.426;2023-09-08T11:25:08;32.20;28.50
17415;DHT22;8825;48.086;16.426;2023-09-08T11:27:38;32.10;29.20
17415;DHT22;8825;48.086;16.426;2023-09-08T11:30:09;32.00;29.20
17415;DHT22;8825;48.086;16.426;2023-09-08T11:32:36;31.90;29.60
17415;DHT22;8825;48.086;16.426;2023-09-08T11:35:05;31.90;30.20
17415;DHT22;8825;48.086;16.426;2023-09-08T11:37:36;31.90;30.10
17415;DHT22;8825;48.086;16.426;2023-09-08T11:40:07;31.90;30.20
17415;DHT22;8825;48.086;16.426;2023-09-08T11:42:43;31.90;29.60
17415;DHT22;8825;48.086;16.426;2023-09-08T11:45:12;31.80;30.00
17415;DHT22;8825;48.086;16.426;2023-09-08T11:47:42;31.80;30.10
17415;DHT22;8825;48.086;16.426;2023-09-08T11:50:11;31.80;29.80
17415;DHT22;8825;48.086;16.426;2023-09-08T11:52:44;31.80;30.10
17415;DHT22;8825;48.086;16.426;2023-09-08T11:55:10;31.80;30.30
17415;DHT22;8825;48.086;16.426;2023-09-08T11:57:39;31.80;30.10
17415;DHT22;8825;48.086;16.426;2023-09-08T12:00:07;31.80;29.60
17415;DHT22;8825;48.086;16.426;2023-09-08T12:02:37;31.70;29.70
17415;DHT22;8825;48.086;16.426;2023-09-08T12:05:05;31.70;29.90
17415;DHT22;8825;48.086;16.426;2023-09-08T12:07:33;31.80;30.10
17415;DHT22;8825;48.086;16.426;2023-09-08T12:10:06;31.70;29.70
17415;DHT22;8825;48.086;16.426;2023-09-08T12:12:31;31.70;29.40
17415;DHT22;8825;48.086;16.426;2023-09-08T12:14:58;31.70;29.80
17415;DHT22;8825;48.086;16.426;2023-09-08T12:17:26;31.70;28.80
17415;DHT22;8825;48.086;16.426;2023-09-08T12:19:55;31.50;29.50
17415;DHT22;8825;48.086;16.426;2023-09-08T12:22:22;31.50;30.00
17415;DHT22;8825;48.086;16.426;2023-09-08T12:27:24;31.70;30.10
17415;DHT22;8825;48.086;16.426;2023-09-08T12:29:59;31.70;30.00
17415;DHT22;8825;48.086;16.426;2023-09-08T12:32:31;31.70;30.00
17415;DHT22;8825;48.086;16.426;2023-09-08T12:35:01;31.70;29.50
17415;DHT22;8825;48.086;16.426;2023-09-08T12:37:30;31.70;29.70
17415;DHT22;8825;48.086;16.426;2023-09-08T12:39:58;31.60;29.90
17415;DHT22;8825;48.086;16.426;2023-09-08T12:42:27;31.60;30.00
17415;DHT22;8825;48.086;16.426;2023-09-08T12:44:57;31.60;30.30
17415;DHT22;8825;48.086;16.426;2023-09-08T12:47:25;31.70;30.30
17415;DHT22;8825;48.086;16.426;2023-09-08T12:49:52;31.40;29.00
17415;DHT22;8825;48.086;16.426;2023-09-08T12:52:21;31.20;29.60
17415;DHT22;8825;48.086;16.426;2023-09-08T12:54:49;31.20;29.60
17415;DHT22;8825;48.086;16.426;2023-09-08T12:57:16;31.20;30.00
17415;DHT22;8825;48.086;16.426;2023-09-08T12:59:44;31.10;30.00
17415;DHT22;8825;48.086;16.426;2023-09-08T13:02:11;31.20;30.30
17415;DHT22;8825;48.086;16.426;2023-09-08T13:04:39;31.30;30.30
17415;DHT22;8825;48.086;16.426;2023-09-08T13:07:06;31.30;30.40
17415;DHT22;8825;48.086;16.426;2023-09-08T13:09:34;31.40;30.30
17415;DHT22;8825;48.086;16.426;2023-09-08T13:12:01;31.40;30.10
17415;DHT22;8825;48.086;16.426;2023-09-08T13:14:29;31.30;30.50
17415;DHT22;8825;48.086;16.426;2023-09-08T13:16:56;31.30;29.80
17415;DHT22;8825;48.086;16.426;2023-09-08T13:19:24;31.30;30.00
17415;DHT22;8825;48.086;16.426;2023-09-08T13:21:51;31.20;30.00
17415;DHT22;8825;48.086;16.426;2023-09-08T13:24:19;31.20;30.30
17415;DHT22;8825;48.086;16.426;2023-09-08T13:26:48;31.20;30.30
17415;DHT22;8825;48.086;16.426;2023-09-08T13:29:17;31.30;30.20
17415;DHT22;8825;48.086;16.426;2023-09-08T13:31:45;31.30;29.40
17415;DHT22;8825;48.086;16.426;2023-09-08T13:34:12;31.20;29.80
17415;DHT22;8825;48.086;16.426;2023-09-08T13:36:40;31.20;30.10
17415;DHT22;8825;48.086;16.426;2023-09-08T13:39:07;31.20;30.20
17415;DHT22;8825;48.086;16.426;2023-09-08T13:41:55;31.20;30.40
17415;DHT22;8825;48.086;16.426;2023-09-08T13:44:24;31.30;30.40
17415;DHT22;8825;48.086;16.426;2023-09-08T13:46:52;31.30;30.00
17415;DHT22;8825;48.086;16.426;2023-09-08T13:49:20;31.30;30.20
17415;DHT22;8825;48.086;16.426;2023-09-08T13:51:50;31.30;30.50
17415;DHT22;8825;48.086;16.426;2023-09-08T13:54:19;31.30;30.10
17415;DHT22;8825;48.086;16.426;2023-09-08T13:56:56;31.30;29.70
17415;DHT22;8825;48.086;16.426;2023-09-08T13:59:17;31.20;29.90
17415;DHT22;8825;48.086;16.426;2023-09-08T14:01:45;31.20;29.50
17415;DHT22;8825;48.086;16.426;2023-09-08T14:04:12;31.00;29.50
17415;DHT22;8825;48.086;16.426;2023-09-08T14:06:40;31.00;29.90
17415;DHT22;8825;48.086;16.426;2023-09-08T14:09:08;31.00;30.20
17415;DHT22;8825;48.086;16.426;2023-09-08T14:11:35;30.90;30.30
17415;DHT22;8825;48.086;16.426;2023-09-08T14:14:03;30.90;30.60
17415;DHT22;8825;48.086;16.426;2023-09-08T14:16:31;31.00;30.80
17415;DHT22;8825;48.086;16.426;2023-09-08T14:18:58;31.00;30.70
17415;DHT22;8825;48.086;16.426;2023-09-08T14:21:26;31.00;30.70
17415;DHT22;8825;48.086;16.426;2023-09-08T14:23:53;31.00;30.60
17415;DHT22;8825;48.086;16.426;2023-09-08T14:26:21;30.90;31.00
17415;DHT22;8825;48.086;16.426;2023-09-08T14:28:48;30.90;31.00
17415;DHT22;8825;48.086;16.426;2023-09-08T14:31:16;30.90;31.10
17415;DHT22;8825;48.086;16.426;2023-09-08T14:33:43;30.90;31.00
17415;DHT22;8825;48.086;16.426;2023-09-08T14:36:11;30.80;30.90
17415;DHT22;8825;48.086;16.426;2023-09-08T14:38:40;30.80;31.00
17415;DHT22;8825;48.086;16.426;2023-09-08T14:41:07;30.80;31.20
17415;DHT22;8825;48.086;16.426;2023-09-08T14:43:35;30.70;31.20
17415;DHT22;8825;48.086;16.426;2023-09-08T14:46:02;30.70;31.30
17415;DHT22;8825;48.086;16.426;2023-09-08T14:48:30;30.60;31.50
17415;DHT22;8825;48.086;16.426;2023-09-08T14:50:58;30.50;31.40
17415;DHT22;8825;48.086;16.426;2023-09-08T14:53:25;30.50;31.60
17415;DHT22;8825;48.086;16.426;2023-09-08T14:55:54;30.40;31.10
17415;DHT22;8825;48.086;16.426;2023-09-08T14:58:24;30.30;31.30
17415;DHT22;8825;48.086;16.426;2023-09-08T15:00:52;30.30;31.70
17415;DHT22;8825;48.086;16.426;2023-09-08T15:03:19;30.20;31.90
17415;DHT22;8825;48.086;16.426;2023-09-08T15:05:47;30.20;32.20
17415;DHT22;8825;48.086;16.426;2023-09-08T15:08:17;30.10;32.40
17415;DHT22;8825;48.086;16.426;2023-09-08T15:10:44;30.00;33.00
17415;DHT22;8825;48.086;16.426;2023-09-08T15:13:11;30.00;32.60
17415;DHT22;8825;48.086;16.426;2023-09-08T15:15:39;29.90;32.50
17415;DHT22;8825;48.086;16.426;2023-09-08T15:18:06;29.90;32.90
17415;DHT22;8825;48.086;16.426;2023-09-08T15:20:34;29.80;32.90
17415;DHT22;8825;48.086;16.426;2023-09-08T15:23:01;29.70;33.00
17415;DHT22;8825;48.086;16.426;2023-09-08T15:25:29;29.70;33.20
17415;DHT22;8825;48.086;16.426;2023-09-08T15:27:57;29.60;33.10
17415;DHT22;8825;48.086;16.426;2023-09-08T15:30:24;29.60;33.20
17415;DHT22;8825;48.086;16.426;2023-09-08T15:32:52;29.50;33.20
17415;DHT22;8825;48.086;16.426;2023-09-08T15:35:19;29.50;33.40
17415;DHT22;8825;48.086;16.426;2023-09-08T15:37:47;29.40;33.50
17415;DHT22;8825;48.086;16.426;2023-09-08T15:40:15;29.40;33.60
17415;DHT22;8825;48.086;16.426;2023-09-08T15:42:42;29.30;33.80
17415;DHT22;8825;48.086;16.426;2023-09-08T15:45:10;29.30;33.90